Time;durP1;ratioP1;P1;durP2;ratioP2;P2;SDS_P1;SDS_P2;PMS_P1;PMS_P2;Temp;Humidity;BMP_temperature;BMP_pressure;BME280_temperature;BME280_humidity;BME280_pressure;Samples;Min_cycle;Max_cycle;Signal;HPM_P1;HPM_P2
2021/06/22 00:00:15;;;;;;;5.67;4.17;;;17.10;99.90;;;;;;5021608;28;20434;-62
2021/06/22 00:02:41;;;;;;;4.27;3.77;;;17.10;99.90;;;;;;5024440;28;20485;-61
2021/06/22 00:05:07;;;;;;;5.90;3.90;;;17.10;99.90;;;;;;5023547;28;20462;-60
2021/06/22 00:07:33;;;;;;;8.00;4.67;;;17.10;99.90;;;;;;5023192;28;20191;-61
2021/06/22 00:09:59;;;;;;;5.53;3.70;;;17.00;99.90;;;;;;5017650;28;20435;-61
2021/06/22 00:12:25;;;;;;;9.03;3.93;;;17.00;99.90;;;;;;5017281;28;20184;-62
2021/06/22 00:14:50;;;;;;;8.77;3.90;;;17.00;99.90;;;;;;5023666;28;20607;-60
2021/06/22 00:17:16;;;;;;;5.07;3.17;;;17.00;99.90;;;;;;5018025;28;20179;-59
2021/06/22 00:19:42;;;;;;;7.60;3.77;;;17.00;99.90;;;;;;5021549;28;20171;-60
2021/06/22 00:22:08;;;;;;;5.90;4.27;;;17.00;99.90;;;;;;5028949;28;20176;-61
2021/06/22 00:24:33;;;;;;;5.23;3.23;;;17.00;99.90;;;;;;5027810;28;20207;-59
2021/06/22 00:26:59;;;;;;;7.07;4.80;;;17.00;99.90;;;;;;5027568;28;20270;-60
2021/06/22 00:29:25;;;;;;;11.37;6.60;;;17.00;99.90;;;;;;5029066;28;20175;-59
2021/06/22 00:31:51;;;;;;;16.80;9.10;;;17.00;99.90;;;;;;5029936;28;20180;-59
2021/06/22 00:34:19;;;;;;;20.90;11.90;;;17.00;99.90;;;;;;5028960;28;20453;-60
2021/06/22 00:36:45;;;;;;;22.50;12.43;;;17.00;99.90;;;;;;5026028;28;20176;-60
2021/06/22 00:39:11;;;;;;;22.30;12.43;;;17.00;99.90;;;;;;5024011;28;20971;-59
2021/06/22 00:41:36;;;;;;;19.83;11.17;;;17.00;99.90;;;;;;5029896;28;20263;-59
2021/06/22 00:44:06;;;;;;;21.73;13.00;;;17.00;99.90;;;;;;5022582;28;20215;-60
2021/06/22 00:46:32;;;;;;;27.67;14.33;;;17.00;99.90;;;;;;5007889;28;20180;-60
2021/06/22 00:48:58;;;;;;;24.13;13.63;;;17.00;99.90;;;;;;5000571;28;20424;-60
2021/06/22 00:51:23;;;;;;;25.33;13.97;;;16.90;99.90;;;;;;5009882;28;20429;-62
2021/06/22 00:53:49;;;;;;;26.03;13.80;;;16.90;99.90;;;;;;5023881;28;20186;-61
2021/06/22 00:56:15;;;;;;;26.73;15.40;;;16.90;99.90;;;;;;5012553;28;20214;-61
2021/06/22 00:58:42;;;;;;;28.73;16.67;;;16.90;99.90;;;;;;5008108;28;20172;-60
2021/06/22 01:01:08;;;;;;;26.73;15.20;;;16.90;99.90;;;;;;5023118;28;20176;-60
2021/06/22 01:03:34;;;;;;;29.97;16.03;;;16.90;99.90;;;;;;5025911;28;21901;-60
2021/06/22 01:05:59;;;;;;;32.60;16.20;;;16.90;99.90;;;;;;5022113;28;20214;-60
2021/06/22 01:08:26;;;;;;;16.80;10.40;;;16.90;99.90;;;;;;5013442;28;21476;-60
2021/06/22 01:10:52;;;;;;;19.50;9.37;;;16.90;99.90;;;;;;5026683;28;20208;-60
2021/06/22 01:13:18;;;;;;;16.47;8.43;;;16.90;99.90;;;;;;4994435;28;21074;-60
2021/06/22 01:15:44;;;;;;;14.03;7.80;;;16.90;99.90;;;;;;5029867;28;20485;-60
2021/06/22 01:18:10;;;;;;;13.30;8.27;;;16.90;99.90;;;;;;5028091;28;20180;-60
2021/06/22 01:20:36;;;;;;;13.07;8.53;;;16.80;99.90;;;;;;5021013;28;20184;-61
2021/06/22 01:23:04;;;;;;;14.83;9.60;;;16.90;99.90;;;;;;5026937;28;20484;-60
2021/06/22 01:25:31;;;;;;;16.73;8.93;;;16.90;99.90;;;;;;5022094;28;20604;-60
2021/06/22 01:27:57;;;;;;;14.03;9.83;;;16.90;99.90;;;;;;5027594;28;20427;-60
2021/06/22 01:30:24;;;;;;;15.20;8.90;;;16.80;99.90;;;;;;5000993;28;20455;-61
2021/06/22 01:32:50;;;;;;;14.77;9.00;;;16.80;99.90;;;;;;5026960;28;20848;-61
2021/06/22 01:35:15;;;;;;;12.03;7.83;;;16.80;99.90;;;;;;5026294;28;20573;-60
2021/06/22 01:37:58;;;;;;;14.97;8.77;;;16.80;99.90;;;;;;5016352;28;20217;-60
2021/06/22 01:40:24;;;;;;;16.53;8.93;;;16.80;99.90;;;;;;5003477;28;20394;-60
2021/06/22 01:42:50;;;;;;;13.47;8.10;;;16.80;99.90;;;;;;5024576;28;20469;-61
2021/06/22 01:45:16;;;;;;;14.80;9.10;;;16.80;99.90;;;;;;5025919;28;20454;-61
2021/06/22 01:47:43;;;;;;;11.90;8.00;;;16.80;99.90;;;;;;5029180;28;20222;-60
2021/06/22 01:50:10;;;;;;;11.43;7.83;;;16.80;99.90;;;;;;5005399;28;21057;-61
2021/06/22 01:52:37;;;;;;;12.17;8.03;;;16.80;99.90;;;;;;5022927;28;20426;-61
2021/06/22 01:57:49;;;;;;;14.23;7.30;;;16.80;99.90;;;;;;5024379;28;20969;-60
2021/06/22 02:00:16;;;;;;;15.60;8.07;;;16.80;99.90;;;;;;5023640;28;20446;-60
2021/06/22 02:02:42;;;;;;;12.83;8.20;;;16.80;99.90;;;;;;5015559;28;21139;-60
2021/06/22 02:05:08;;;;;;;11.73;7.17;;;16.80;99.90;;;;;;5008271;28;20466;-60
2021/06/22 02:07:33;;;;;;;11.23;7.00;;;16.80;99.90;;;;;;5025939;28;20203;-60
2021/06/22 02:09:59;;;;;;;10.97;8.00;;;16.80;99.90;;;;;;5004862;28;21252;-60
2021/06/22 02:12:24;;;;;;;11.17;7.37;;;16.80;99.90;;;;;;5007602;28;20168;-60
2021/06/22 02:14:50;;;;;;;8.57;7.20;;;16.80;99.90;;;;;;5025602;28;20195;-60
2021/06/22 02:17:16;;;;;;;12.07;7.27;;;16.70;99.90;;;;;;5022619;28;20172;-60
2021/06/22 02:19:41;;;;;;;15.23;7.77;;;16.70;99.90;;;;;;5023953;28;20180;-60
2021/06/22 02:22:07;;;;;;;14.33;7.90;;;16.70;99.90;;;;;;5009917;28;20206;-60
2021/06/22 02:24:32;;;;;;;12.30;7.60;;;16.70;99.90;;;;;;5026742;28;20716;-60
2021/06/22 02:26:58;;;;;;;11.73;8.00;;;16.70;99.90;;;;;;5016173;28;20184;-61
2021/06/22 02:29:24;;;;;;;15.30;7.80;;;16.70;99.90;;;;;;5025219;28;20198;-61
2021/06/22 02:31:49;;;;;;;11.37;7.47;;;16.70;99.90;;;;;;5007035;28;20171;-61
2021/06/22 02:34:15;;;;;;;10.43;7.43;;;16.70;99.90;;;;;;5023765;28;20196;-60
2021/06/22 02:36:40;;;;;;;5.60;4.60;;;16.60;99.90;;;;;;5093389;22;20242;-59
2021/06/22 02:39:06;;;;;;;7.70;4.60;;;16.60;99.90;;;;;;5065403;28;20264;-58
2021/06/22 02:41:32;;;;;;;10.70;4.73;;;16.60;99.90;;;;;;5062748;28;20170;-60
2021/06/22 02:43:57;;;;;;;11.53;4.53;;;16.50;99.90;;;;;;5062032;28;20198;-58
2021/06/22 02:46:23;;;;;;;5.33;4.57;;;16.50;99.90;;;;;;5049184;28;20587;-57
2021/06/22 02:48:49;;;;;;;6.17;4.20;;;16.40;99.90;;;;;;5043799;28;20670;-59
2021/06/22 02:51:14;;;;;;;7.67;5.10;;;16.40;99.90;;;;;;5036179;28;20817;-60
2021/06/22 02:53:40;;;;;;;6.87;4.87;;;16.40;99.90;;;;;;5033617;28;20163;-58
2021/06/22 02:56:06;;;;;;;9.60;4.50;;;16.30;99.90;;;;;;5038805;28;20699;-55
2021/06/22 02:58:32;;;;;;;7.20;4.27;;;16.30;99.90;;;;;;5033045;28;20171;-58
2021/06/22 03:00:57;;;;;;;7.30;4.13;;;16.20;99.90;;;;;;5040169;28;20185;-59
2021/06/22 03:03:23;;;;;;;4.33;3.63;;;16.20;99.90;;;;;;5035699;28;20191;-60
2021/06/22 03:05:49;;;;;;;9.50;4.27;;;16.10;99.90;;;;;;5039423;28;20204;-59
2021/06/22 03:08:14;;;;;;;6.33;3.60;;;16.10;99.90;;;;;;5039906;28;20249;-59
2021/06/22 03:10:40;;;;;;;8.50;3.87;;;16.00;99.90;;;;;;5036031;28;20171;-58
2021/06/22 03:13:05;;;;;;;7.20;4.00;;;16.00;99.90;;;;;;5028951;28;20999;-57
2021/06/22 03:15:31;;;;;;;6.63;3.47;;;15.90;99.90;;;;;;5034047;28;20202;-60
2021/06/22 03:17:57;;;;;;;3.50;3.20;;;15.90;99.90;;;;;;5035312;28;20180;-57
2021/06/22 03:20:23;;;;;;;5.00;3.20;;;15.90;99.90;;;;;;5036393;28;20233;-59
2021/06/22 03:22:48;;;;;;;6.77;3.47;;;15.80;99.90;;;;;;5032373;28;20199;-60
2021/06/22 03:25:15;;;;;;;4.83;2.77;;;15.80;99.90;;;;;;5036410;28;20206;-61
2021/06/22 03:27:41;;;;;;;5.80;3.80;;;15.70;99.90;;;;;;5037395;28;20171;-58
2021/06/22 03:30:10;;;;;;;3.70;3.20;;;15.70;99.90;;;;;;5044743;28;20819;-57
2021/06/22 03:32:36;;;;;;;7.00;3.83;;;15.70;99.90;;;;;;5037902;28;20422;-59
2021/06/22 03:35:05;;;;;;;7.07;3.47;;;15.70;99.90;;;;;;5037110;28;20429;-57
2021/06/22 03:37:31;;;;;;;4.10;3.10;;;15.70;99.90;;;;;;5034331;28;20438;-57
2021/06/22 03:39:57;;;;;;;5.57;3.10;;;15.80;99.90;;;;;;5035592;28;20455;-57
2021/06/22 03:42:23;;;;;;;7.63;3.50;;;15.80;99.90;;;;;;5034095;28;20175;-58
2021/06/22 03:44:48;;;;;;;7.87;4.10;;;15.80;99.90;;;;;;5029040;28;21351;-60
2021/06/22 03:47:14;;;;;;;4.53;3.43;;;15.80;99.90;;;;;;5048290;28;20230;-61
2021/06/22 03:49:40;;;;;;;7.23;3.17;;;15.80;99.90;;;;;;5036255;28;20163;-57
2021/06/22 03:52:06;;;;;;;7.63;4.03;;;15.90;99.90;;;;;;5032957;28;20179;-59
2021/06/22 03:54:31;;;;;;;3.93;3.53;;;15.90;99.90;;;;;;5032134;28;20187;-55
2021/06/22 03:56:57;;;;;;;8.33;3.17;;;15.90;99.90;;;;;;5038677;28;20203;-61
2021/06/22 03:59:23;;;;;;;6.43;3.03;;;15.90;99.90;;;;;;5041508;28;20180;-58
2021/06/22 04:01:48;;;;;;;5.93;3.20;;;16.00;99.90;;;;;;5035495;28;20179;-60
2021/06/22 04:04:14;;;;;;;5.87;3.30;;;16.00;99.90;;;;;;5040533;28;20176;-60
2021/06/22 04:06:40;;;;;;;7.50;3.87;;;16.00;99.90;;;;;;5030595;28;20195;-56
2021/06/22 04:09:05;;;;;;;7.57;3.80;;;16.00;99.90;;;;;;5048149;28;20174;-60
2021/06/22 04:11:31;;;;;;;7.90;4.20;;;16.00;99.90;;;;;;5028391;28;20570;-59
2021/06/22 04:13:57;;;;;;;5.13;4.17;;;16.00;99.90;;;;;;5032913;28;20719;-59
2021/06/22 04:16:22;;;;;;;11.13;4.13;;;15.90;99.90;;;;;;5025400;28;22455;-56
2021/06/22 04:18:48;;;;;;;7.47;4.30;;;15.90;99.90;;;;;;5030680;28;20185;-58
2021/06/22 04:21:14;;;;;;;8.80;3.97;;;15.90;99.90;;;;;;5028105;28;20180;-60
2021/06/22 04:23:39;;;;;;;13.03;4.73;;;15.90;99.90;;;;;;5038096;28;20175;-59
2021/06/22 04:26:05;;;;;;;6.07;4.27;;;15.90;99.90;;;;;;5032647;28;20614;-60
2021/06/22 04:28:31;;;;;;;15.53;4.93;;;16.00;99.90;;;;;;5031794;28;20230;-60
2021/06/22 04:30:57;;;;;;;12.00;5.40;;;16.00;99.90;;;;;;5034572;28;20443;-59
2021/06/22 04:33:24;;;;;;;7.47;6.27;;;16.00;99.90;;;;;;5031554;28;20243;-61
2021/06/22 04:35:50;;;;;;;11.90;5.10;;;16.00;99.90;;;;;;5026612;28;20251;-60
2021/06/22 04:38:15;;;;;;;13.70;5.90;;;16.00;99.90;;;;;;5028476;28;20470;-58
2021/06/22 04:40:41;;;;;;;6.87;4.43;;;16.00;99.90;;;;;;5042898;28;20188;-59
2021/06/22 04:43:07;;;;;;;9.17;5.17;;;16.00;99.90;;;;;;5029097;28;20172;-62
2021/06/22 04:45:34;;;;;;;7.83;5.53;;;16.10;99.90;;;;;;5022797;28;20243;-62
2021/06/22 04:48:00;;;;;;;9.60;6.60;;;16.10;99.90;;;;;;5025739;28;20433;-60
2021/06/22 04:50:26;;;;;;;13.50;6.60;;;16.20;99.90;;;;;;5023901;28;20433;-61
2021/06/22 04:52:52;;;;;;;11.03;7.10;;;16.20;99.90;;;;;;5028150;28;21129;-57
2021/06/22 04:55:23;;;;;;;12.17;7.40;;;16.20;99.90;;;;;;5023918;28;20469;-56
2021/06/22 04:57:49;;;;;;;12.33;7.70;;;16.20;99.90;;;;;;5015629;28;20441;-62
2021/06/22 05:00:15;;;;;;;12.80;9.20;;;16.20;99.90;;;;;;5021197;28;20437;-56
2021/06/22 05:02:42;;;;;;;11.90;8.97;;;16.30;99.90;;;;;;5019914;28;20430;-57
2021/06/22 05:05:09;;;;;;;11.67;6.90;;;16.30;99.90;;;;;;5022248;28;20570;-57
2021/06/22 05:07:35;;;;;;;8.43;6.60;;;16.30;99.90;;;;;;5021004;28;20421;-56
2021/06/22 05:10:01;;;;;;;7.63;5.43;;;16.30;99.90;;;;;;5024605;28;20475;-64
2021/06/22 05:12:26;;;;;;;8.97;5.90;;;16.40;99.90;;;;;;5029898;28;20186;-56
2021/06/22 05:14:52;;;;;;;9.90;5.57;;;16.40;99.90;;;;;;5027018;28;20183;-59
2021/06/22 05:17:18;;;;;;;7.43;5.87;;;16.50;99.90;;;;;;5036523;28;20175;-57
2021/06/22 05:19:44;;;;;;;8.13;6.47;;;16.50;99.90;;;;;;5029463;28;20436;-57
2021/06/22 05:22:09;;;;;;;6.13;5.23;;;16.50;99.90;;;;;;5035840;28;20254;-57
2021/06/22 05:24:35;;;;;;;8.90;5.83;;;16.50;99.90;;;;;;5039414;28;20519;-56
2021/06/22 05:27:01;;;;;;;10.60;6.23;;;16.60;99.90;;;;;;5034205;28;20228;-55
2021/06/22 05:29:27;;;;;;;6.43;5.40;;;16.60;99.90;;;;;;5035623;28;20404;-57
2021/06/22 05:31:52;;;;;;;14.33;4.63;;;16.60;99.90;;;;;;5038510;28;20547;-57
2021/06/22 05:34:18;;;;;;;5.77;4.40;;;16.60;99.90;;;;;;5042583;28;20582;-57
2021/06/22 05:36:44;;;;;;;5.87;4.73;;;16.60;99.90;;;;;;5036885;28;20215;-55
2021/06/22 05:39:09;;;;;;;6.80;4.73;;;16.60;99.90;;;;;;5040073;28;20172;-57
2021/06/22 05:41:35;;;;;;;5.63;4.10;;;16.60;99.90;;;;;;5044507;28;20611;-58
2021/06/22 05:44:01;;;;;;;10.40;4.50;;;16.60;99.90;;;;;;5042177;28;20171;-57
2021/06/22 05:46:26;;;;;;;9.70;4.33;;;16.50;99.90;;;;;;5053205;28;20804;-57
2021/06/22 05:48:52;;;;;;;7.80;4.90;;;16.50;99.90;;;;;;5049758;28;20177;-59
2021/06/22 05:51:18;;;;;;;6.10;4.60;;;16.50;99.90;;;;;;5045191;28;20170;-55
2021/06/22 05:53:44;;;;;;;5.40;4.90;;;16.50;99.90;;;;;;5040238;28;20250;-58
2021/06/22 05:56:09;;;;;;;6.90;4.80;;;16.50;99.90;;;;;;5039131;28;20456;-58
2021/06/22 05:58:35;;;;;;;9.23;5.37;;;16.50;99.90;;;;;;5039878;28;20171;-58
2021/06/22 06:01:01;;;;;;;10.23;5.20;;;16.50;99.90;;;;;;5040829;28;20241;-54
2021/06/22 06:03:26;;;;;;;9.87;5.50;;;16.60;99.90;;;;;;5031183;28;20650;-57
2021/06/22 06:05:52;;;;;;;6.90;4.07;;;16.60;99.90;;;;;;5035665;28;20214;-61
2021/06/22 06:08:18;;;;;;;5.90;4.97;;;16.60;99.90;;;;;;5039616;28;20174;-56
2021/06/22 06:10:43;;;;;;;6.60;5.40;;;16.60;99.90;;;;;;5036652;28;20171;-56
2021/06/22 06:13:09;;;;;;;13.00;5.13;;;16.60;99.90;;;;;;5037773;28;20178;-58
2021/06/22 06:15:35;;;;;;;7.97;5.30;;;16.60;99.90;;;;;;5036859;28;20277;-56
2021/06/22 06:18:00;;;;;;;9.40;5.40;;;16.60;99.90;;;;;;5042562;28;20190;-57
2021/06/22 06:20:27;;;;;;;6.80;6.10;;;16.70;99.90;;;;;;5045741;28;20169;-61
2021/06/22 06:22:53;;;;;;;14.03;6.07;;;16.70;99.90;;;;;;5032716;28;20188;-58
2021/06/22 06:25:19;;;;;;;13.57;6.50;;;16.70;99.90;;;;;;5032542;28;20469;-59
2021/06/22 06:30:17;;;;;;;7.93;5.70;;;16.70;99.90;;;;;;5036627;28;20824;-56
2021/06/22 06:32:46;;;;;;;9.23;5.67;;;16.80;99.90;;;;;;5040371;28;20422;-57
2021/06/22 06:35:13;;;;;;;11.20;5.47;;;16.80;99.90;;;;;;5034405;28;20499;-57
2021/06/22 06:37:39;;;;;;;7.77;4.83;;;16.80;99.90;;;;;;5035475;28;20448;-61
2021/06/22 06:40:06;;;;;;;7.10;4.60;;;16.80;99.90;;;;;;5041301;28;20418;-57
2021/06/22 06:42:32;;;;;;;13.63;4.77;;;16.70;99.90;;;;;;5038421;28;20454;-59
2021/06/22 06:44:58;;;;;;;5.97;4.90;;;16.70;99.90;;;;;;5030592;28;20450;-62
2021/06/22 06:47:23;;;;;;;8.30;5.80;;;16.70;99.90;;;;;;5033352;28;20700;-59
2021/06/22 06:49:49;;;;;;;7.30;5.40;;;16.70;99.90;;;;;;5028823;28;20306;-56
2021/06/22 06:52:15;;;;;;;10.43;5.80;;;16.60;99.90;;;;;;5038920;28;20250;-55
2021/06/22 06:54:41;;;;;;;12.63;5.37;;;16.70;99.90;;;;;;5041982;28;20178;-57
2021/06/22 06:57:07;;;;;;;7.03;3.90;;;16.70;99.90;;;;;;5040119;28;20199;-57
2021/06/22 06:59:32;;;;;;;7.73;4.63;;;16.70;99.90;;;;;;5033772;28;20592;-58
2021/06/22 07:01:58;;;;;;;10.43;4.40;;;16.70;99.90;;;;;;5029976;28;20453;-62
2021/06/22 07:04:24;;;;;;;5.30;4.37;;;16.70;99.90;;;;;;5032052;28;20195;-55
2021/06/22 07:06:50;;;;;;;5.53;4.37;;;16.80;99.90;;;;;;5029373;28;20361;-56
2021/06/22 07:09:15;;;;;;;8.53;4.00;;;16.90;99.90;;;;;;5035099;28;20518;-55
2021/06/22 07:11:41;;;;;;;4.43;4.00;;;17.00;99.90;;;;;;5032633;28;20178;-59
2021/06/22 07:14:07;;;;;;;4.97;3.90;;;17.10;99.90;;;;;;5028237;28;20191;-58
2021/06/22 07:16:33;;;;;;;8.07;3.43;;;17.20;99.90;;;;;;5037894;28;20446;-60
2021/06/22 07:18:59;;;;;;;5.23;3.33;;;17.20;99.90;;;;;;5030828;28;20180;-57
2021/06/22 07:21:25;;;;;;;4.13;3.40;;;17.30;99.90;;;;;;5032707;28;20249;-60
2021/06/22 07:23:52;;;;;;;3.83;3.40;;;17.40;99.90;;;;;;5033358;28;20427;-55
2021/06/22 07:26:18;;;;;;;3.97;3.37;;;17.40;99.90;;;;;;5039949;28;20217;-57
2021/06/22 07:28:44;;;;;;;2.80;2.60;;;17.50;99.90;;;;;;5030297;28;20430;-59
2021/06/22 07:31:11;;;;;;;3.47;3.17;;;17.60;99.90;;;;;;5030394;28;20264;-59
2021/06/22 07:33:38;;;;;;;6.47;2.67;;;17.60;99.90;;;;;;5035739;28;20436;-61
2021/06/22 07:36:05;;;;;;;6.27;2.60;;;17.60;99.90;;;;;;5032482;28;20468;-62
2021/06/22 07:38:31;;;;;;;7.87;3.23;;;17.50;99.90;;;;;;5039502;28;20425;-58
2021/06/22 07:40:56;;;;;;;2.93;2.60;;;17.60;99.90;;;;;;5050233;28;20438;-59
2021/06/22 07:43:22;;;;;;;3.60;2.80;;;17.50;99.90;;;;;;5038026;28;20553;-60
2021/06/22 07:45:48;;;;;;;4.10;3.10;;;17.50;99.90;;;;;;5045209;28;20666;-62
2021/06/22 07:48:14;;;;;;;5.20;2.83;;;17.50;99.90;;;;;;5046263;28;20322;-60
2021/06/22 07:50:39;;;;;;;3.40;3.10;;;17.60;99.90;;;;;;5036848;28;20175;-59
2021/06/22 07:53:05;;;;;;;3.50;2.67;;;17.60;99.90;;;;;;5050686;28;20170;-57
2021/06/22 07:55:31;;;;;;;6.10;2.83;;;17.60;99.90;;;;;;5065546;28;20187;-58
2021/06/22 07:57:57;;;;;;;2.57;2.37;;;17.60;99.90;;;;;;5043036;28;20174;-57
2021/06/22 08:00:42;;;;;;;6.50;2.70;;;17.60;99.90;;;;;;5050399;28;21100;-59
2021/06/22 08:03:18;;;;;;;3.53;2.40;;;17.60;99.90;;;;;;5040781;28;20444;-58
2021/06/22 08:05:46;;;;;;;2.70;2.23;;;17.60;99.90;;;;;;5052486;28;20484;-59
2021/06/22 08:08:16;;;;;;;3.50;2.00;;;17.60;99.90;;;;;;5055687;28;20438;-58
2021/06/22 08:10:42;;;;;;;5.67;2.50;;;17.60;99.90;;;;;;5051817;28;20419;-59
2021/06/22 08:13:08;;;;;;;4.67;2.70;;;17.60;99.90;;;;;;5056147;28;20864;-58
2021/06/22 08:15:36;;;;;;;4.67;2.30;;;17.60;99.90;;;;;;5067535;28;20505;-58
2021/06/22 08:18:02;;;;;;;4.10;2.37;;;17.60;99.90;;;;;;5049587;28;20444;-63
2021/06/22 08:20:27;;;;;;;3.53;2.10;;;17.60;99.90;;;;;;5044829;28;20444;-62
2021/06/22 08:22:54;;;;;;;4.87;2.80;;;17.70;99.90;;;;;;5031691;28;20398;-57
2021/06/22 08:25:25;;;;;;;2.67;2.43;;;17.70;99.90;;;;;;5043120;28;20281;-60
2021/06/22 08:27:52;;;;;;;4.70;2.50;;;17.80;99.90;;;;;;5043283;28;20406;-59
2021/06/22 08:30:19;;;;;;;5.47;2.90;;;17.80;99.90;;;;;;5048247;28;20400;-59
2021/06/22 08:32:45;;;;;;;2.50;2.30;;;17.80;99.90;;;;;;5039673;28;20431;-58
2021/06/22 08:35:11;;;;;;;3.80;2.40;;;17.90;99.90;;;;;;5043905;28;20433;-59
2021/06/22 08:37:37;;;;;;;2.33;2.13;;;17.90;99.90;;;;;;5047930;28;20259;-59
2021/06/22 08:40:05;;;;;;;7.57;2.40;;;17.90;99.90;;;;;;5068382;22;20633;-59
2021/06/22 08:42:33;;;;;;;4.10;2.40;;;17.90;99.90;;;;;;5027355;28;20180;-61
2021/06/22 08:44:59;;;;;;;3.97;2.23;;;18.00;99.90;;;;;;5024627;28;20490;-61
2021/06/22 08:47:27;;;;;;;2.50;1.87;;;18.10;99.90;;;;;;5030279;28;20453;-62
2021/06/22 08:49:55;;;;;;;2.90;2.40;;;18.20;99.90;;;;;;5012905;28;20218;-61
2021/06/22 08:52:25;;;;;;;3.63;2.33;;;18.20;99.90;;;;;;5018652;28;20439;-62
2021/06/22 08:54:52;;;;;;;4.00;2.40;;;18.30;99.90;;;;;;5027983;28;20427;-61
2021/06/22 08:57:19;;;;;;;2.77;2.40;;;18.30;99.90;;;;;;5027682;28;20438;-61
2021/06/22 08:59:45;;;;;;;5.83;2.20;;;18.40;99.90;;;;;;5026215;28;20430;-61
2021/06/22 09:02:11;;;;;;;3.20;2.30;;;18.50;99.90;;;;;;5023494;28;20430;-62
2021/06/22 09:04:37;;;;;;;5.77;2.33;;;18.60;99.90;;;;;;5024618;28;20233;-61
2021/06/22 09:07:03;;;;;;;7.30;2.40;;;18.90;99.90;;;;;;5010414;28;20180;-61
2021/06/22 09:09:36;;;;;;;3.53;2.37;;;19.20;99.90;;;;;;5027381;28;20814;-61
2021/06/22 09:12:05;;;;;;;3.93;2.20;;;19.50;99.90;;;;;;5017777;28;20192;-65
2021/06/22 09:14:39;;;;;;;2.03;1.93;;;19.60;99.90;;;;;;5016607;28;20443;-61
2021/06/22 09:17:06;;;;;;;9.03;2.40;;;19.60;99.90;;;;;;5003126;28;20429;-61
2021/06/22 09:19:33;;;;;;;3.43;2.20;;;19.60;99.90;;;;;;5020433;28;20454;-63
2021/06/22 09:22:16;;;;;;;2.20;2.00;;;19.50;99.90;;;;;;5021582;28;20450;-62
2021/06/22 09:25:00;;;;;;;6.30;2.00;;;19.30;99.90;;;;;;5024443;28;20847;-62
2021/06/22 09:27:55;;;;;;;3.70;2.20;;;19.10;99.90;;;;;;5020776;28;20437;-61
2021/06/22 09:30:45;;;;;;;2.63;2.20;;;18.90;99.90;;;;;;4991172;28;20526;-61
2021/06/22 09:33:33;;;;;;;7.27;2.80;;;18.70;99.90;;;;;;5024640;28;20433;-60
2021/06/22 09:36:06;;;;;;;6.23;2.73;;;18.60;99.90;;;;;;5028226;28;20450;-61
2021/06/22 09:38:38;;;;;;;2.40;1.90;;;18.60;99.90;;;;;;5012034;28;20437;-61
2021/06/22 09:41:07;;;;;;;4.43;2.13;;;18.70;99.90;;;;;;5028880;28;20815;-61
2021/06/22 09:43:59;;;;;;;2.70;2.10;;;18.80;99.90;;;;;;5022796;28;21020;-62
2021/06/22 09:46:32;;;;;;;6.33;3.20;;;19.00;99.90;;;;;;5027134;28;20537;-62
2021/06/22 09:49:01;;;;;;;3.47;2.10;;;19.20;99.90;;;;;;5021931;28;20427;-61
2021/06/22 09:51:31;;;;;;;5.03;2.47;;;19.40;99.90;;;;;;5024714;28;20824;-61
2021/06/22 09:54:19;;;;;;;4.73;2.00;;;19.70;99.90;;;;;;5029037;28;20414;-62
2021/06/22 09:56:56;;;;;;;3.53;2.50;;;19.90;99.90;;;;;;5011784;28;20453;-62
2021/06/22 09:59:23;;;;;;;2.83;2.30;;;20.00;99.90;;;;;;5028157;28;20434;-61
2021/06/22 10:01:52;;;;;;;3.00;2.40;;;20.00;99.90;;;;;;5019620;28;20458;-60
2021/06/22 10:04:27;;;;;;;2.30;2.10;;;20.00;99.90;;;;;;5027036;28;20842;-60
2021/06/22 10:06:59;;;;;;;2.60;2.40;;;19.90;99.80;;;;;;5027527;28;20488;-61
2021/06/22 10:09:33;;;;;;;2.10;2.00;;;19.90;99.40;;;;;;5013528;28;20439;-60
2021/06/22 10:12:05;;;;;;;3.00;2.70;;;19.80;99.90;;;;;;5025445;28;20450;-61
2021/06/22 10:14:53;;;;;;;3.37;2.03;;;19.90;99.90;;;;;;5018866;28;20442;-61
2021/06/22 10:17:21;;;;;;;3.37;2.70;;;19.90;99.90;;;;;;5015357;28;20440;-61
2021/06/22 10:19:55;;;;;;;3.13;2.40;;;20.00;99.90;;;;;;5013885;28;21085;-60
2021/06/22 10:22:25;;;;;;;3.83;2.37;;;20.00;99.90;;;;;;5028072;28;20387;-60
2021/06/22 10:24:51;;;;;;;2.00;1.80;;;20.10;99.90;;;;;;5026198;28;20473;-61
2021/06/22 10:27:18;;;;;;;3.13;1.93;;;20.10;99.80;;;;;;5023410;28;20435;-62
2021/06/22 10:29:46;;;;;;;3.00;1.67;;;20.10;98.00;;;;;;5026216;28;20171;-61
2021/06/22 10:32:13;;;;;;;2.10;1.70;;;20.10;99.10;;;;;;5023742;28;20442;-59
2021/06/22 10:34:39;;;;;;;2.20;1.63;;;20.10;98.40;;;;;;5021696;28;20438;-61
2021/06/22 10:37:27;;;;;;;2.03;1.80;;;20.10;98.30;;;;;;5005835;28;20446;-60
2021/06/22 10:40:04;;;;;;;3.07;1.80;;;20.10;98.30;;;;;;5009071;28;20947;-61
2021/06/22 10:42:47;;;;;;;6.23;2.00;;;20.10;98.30;;;;;;5011979;28;20404;-61
2021/06/22 10:45:13;;;;;;;1.67;1.57;;;20.10;98.40;;;;;;5023932;28;20553;-63
2021/06/22 10:47:43;;;;;;;2.97;1.53;;;20.00;97.20;;;;;;5016428;28;20473;-62
2021/06/22 10:50:22;;;;;;;1.60;1.50;;;19.90;96.80;;;;;;5022136;28;20442;-61
2021/06/22 10:52:56;;;;;;;1.67;1.57;;;19.80;96.90;;;;;;5019300;28;20450;-62
2021/06/22 10:55:28;;;;;;;2.03;1.70;;;19.60;96.50;;;;;;5023013;28;20455;-62
2021/06/22 10:57:59;;;;;;;2.20;2.00;;;19.50;97.20;;;;;;5008693;28;21061;-62
2021/06/22 11:00:52;;;;;;;2.60;2.23;;;19.30;97.70;;;;;;5016788;28;20454;-57
2021/06/22 11:03:29;;;;;;;2.97;1.60;;;19.10;98.40;;;;;;5000464;28;20434;-55
2021/06/22 11:06:10;;;;;;;6.67;3.23;;;19.00;98.00;;;;;;5022574;28;20561;-57
2021/06/22 11:08:41;;;;;;;6.47;3.30;;;18.90;98.60;;;;;;5027496;28;20433;-61
2021/06/22 11:11:06;;;;;;;1.90;1.60;;;18.80;99.10;;;;;;5021092;28;20450;-61
2021/06/22 11:13:35;;;;;;;4.70;2.77;;;18.80;99.70;;;;;;5021239;28;21203;-62
2021/06/22 11:16:06;;;;;;;2.67;2.30;;;18.80;99.90;;;;;;5014408;28;20563;-61
2021/06/22 11:18:54;;;;;;;2.80;2.47;;;18.90;99.90;;;;;;5024104;28;20461;-61
2021/06/22 11:21:26;;;;;;;7.43;3.40;;;19.10;99.90;;;;;;5016754;28;20462;-60
2021/06/22 11:23:57;;;;;;;4.10;2.00;;;19.60;99.90;;;;;;5021132;28;20442;-60
2021/06/22 11:26:25;;;;;;;2.70;1.80;;;20.00;99.90;;;;;;5024000;28;20467;-61
2021/06/22 11:28:55;;;;;;;2.13;1.93;;;20.30;99.90;;;;;;5024220;28;20438;-60
2021/06/22 11:31:50;;;;;;;1.93;1.83;;;20.50;98.90;;;;;;5019267;28;20454;-61
2021/06/22 11:34:53;;;;;;;2.43;2.13;;;20.70;99.10;;;;;;4985890;28;20437;-61
2021/06/22 11:37:22;;;;;;;2.47;1.90;;;21.00;98.60;;;;;;5020776;28;20469;-62
2021/06/22 11:40:08;;;;;;;2.27;2.07;;;21.30;98.00;;;;;;5025808;28;20470;-61
2021/06/22 11:42:37;;;;;;;1.90;1.80;;;21.40;96.60;;;;;;5019122;28;20521;-62
2021/06/22 11:45:03;;;;;;;7.90;2.17;;;21.70;97.90;;;;;;5019547;28;20557;-62
2021/06/22 11:47:31;;;;;;;2.63;1.90;;;22.20;97.30;;;;;;4997182;28;20526;-60
2021/06/22 11:50:19;;;;;;;1.90;1.70;;;22.60;96.00;;;;;;5019964;28;20245;-61
2021/06/22 11:52:52;;;;;;;3.27;1.80;;;22.90;92.00;;;;;;5024674;28;20532;-60
2021/06/22 11:55:21;;;;;;;5.50;1.90;;;23.00;91.90;;;;;;5008189;28;20454;-61
2021/06/22 11:57:55;;;;;;;1.60;1.50;;;23.00;87.60;;;;;;5020693;28;20430;-61
2021/06/22 12:00:23;;;;;;;2.50;1.80;;;22.90;83.20;;;;;;5004035;28;20466;-61
2021/06/22 12:02:54;;;;;;;1.30;1.17;;;23.00;83.10;;;;;;5018343;28;20435;-60
2021/06/22 12:05:23;;;;;;;2.23;1.30;;;23.20;75.20;;;;;;5014529;28;20636;-61
2021/06/22 12:07:50;;;;;;;1.30;1.20;;;23.50;81.40;;;;;;5020215;28;20972;-63
2021/06/22 12:10:18;;;;;;;1.93;1.20;;;23.50;74.60;;;;;;5018466;28;20804;-63
2021/06/22 12:12:45;;;;;;;1.53;1.20;;;23.50;77.00;;;;;;5022647;28;20438;-62
2021/06/22 12:15:12;;;;;;;2.47;1.40;;;23.50;77.50;;;;;;5022973;28;20624;-61
2021/06/22 12:17:37;;;;;;;1.50;1.40;;;23.70;79.90;;;;;;5026731;28;20572;-61
2021/06/22 12:20:20;;;;;;;2.80;1.70;;;23.90;74.70;;;;;;5023710;28;20917;-62
2021/06/22 12:23:04;;;;;;;1.60;1.50;;;23.90;69.80;;;;;;5021129;28;20187;-63
2021/06/22 12:25:39;;;;;;;1.43;1.27;;;24.10;67.40;;;;;;5021318;28;20536;-61
2021/06/22 12:28:05;;;;;;;5.70;1.20;;;24.10;65.00;;;;;;5021324;28;20426;-62
2021/06/22 12:30:43;;;;;;;1.53;1.30;;;23.90;66.50;;;;;;5005716;28;21041;-62
2021/06/22 12:33:15;;;;;;;2.50;1.53;;;23.90;65.60;;;;;;4997145;28;20433;-63
2021/06/22 12:35:43;;;;;;;1.90;1.20;;;24.10;66.60;;;;;;5001582;28;20443;-60
2021/06/22 12:38:11;;;;;;;1.20;1.10;;;24.30;64.30;;;;;;5000445;28;20450;-61
2021/06/22 12:40:40;;;;;;;1.27;1.17;;;24.50;68.80;;;;;;5019409;28;20478;-61
2021/06/22 12:43:06;;;;;;;1.70;1.40;;;24.80;65.50;;;;;;5018851;28;20517;-62
2021/06/22 12:45:32;;;;;;;2.10;1.40;;;25.00;65.00;;;;;;5015790;28;20462;-61
2021/06/22 12:47:58;;;;;;;2.40;1.30;;;25.20;64.20;;;;;;5022886;28;20249;-62
2021/06/22 12:50:28;;;;;;;1.37;1.10;;;25.30;61.90;;;;;;5016207;28;20250;-62
2021/06/22 12:52:54;;;;;;;1.23;1.13;;;25.40;58.00;;;;;;5004239;28;20427;-62